Time;durP1;ratioP1;P1;durP2;ratioP2;P2;SDS_P1;SDS_P2;PMS_P1;PMS_P2;Temp;Humidity;BMP_temperature;BMP_pressure;BME280_temperature;BME280_humidity;BME280_pressure;Samples;Min_cycle;Max_cycle;Signal;HPM_P1;HPM_P2
2024/01/31 00:01:25;;;;;;;18.77;11.80;;;;;;;3.99;52.59;96307.38;5112597;28;20193;-63
2024/01/31 00:03:53;;;;;;;18.33;11.10;;;;;;;4.06;52.71;96316.41;5112261;28;20217;-62
2024/01/31 00:06:20;;;;;;;21.33;11.57;;;;;;;4.05;52.67;96319.78;5111977;28;20200;-63
2024/01/31 00:08:47;;;;;;;14.80;10.37;;;;;;;3.81;52.70;96285.28;5112401;28;20250;-61
2024/01/31 00:11:15;;;;;;;16.47;10.80;;;;;;;3.69;52.56;96267.16;5112243;28;20657;-62
2024/01/31 00:13:42;;;;;;;15.53;10.57;;;;;;;3.90;52.64;96310.25;5112189;28;20315;-62
2024/01/31 00:16:09;;;;;;;16.57;10.40;;;;;;;4.01;52.58;96329.19;5112196;28;20189;-63
2024/01/31 00:18:36;;;;;;;19.03;10.37;;;;;;;4.00;52.69;96329.25;5111946;28;20257;-63
2024/01/31 00:21:04;;;;;;;12.43;8.90;;;;;;;3.97;52.57;96325.16;5112341;28;20185;-63
2024/01/31 00:23:31;;;;;;;14.10;9.93;;;;;;;3.96;52.66;96327.72;5111752;28;20189;-62
2024/01/31 00:25:58;;;;;;;16.63;10.63;;;;;;;3.70;52.75;96283.16;5112043;28;20667;-63
2024/01/31 00:28:26;;;;;;;15.30;9.23;;;;;;;3.94;52.79;96322.72;5111882;28;20211;-62
2024/01/31 00:30:52;;;;;;;14.10;9.53;;;;;;;3.79;52.78;96295.44;5111732;28;20188;-62
2024/01/31 00:33:19;;;;;;;13.67;9.10;;;;;;;3.91;52.70;96317.78;5111735;28;20217;-62
2024/01/31 00:35:46;;;;;;;16.77;9.53;;;;;;;3.88;52.61;96324.66;5112152;28;20177;-63
2024/01/31 00:38:14;;;;;;;11.97;8.63;;;;;;;3.85;52.88;96307.06;5111965;28;20188;-62
2024/01/31 00:40:41;;;;;;;15.07;10.10;;;;;;;3.86;52.66;96311.25;5111804;28;20185;-62
2024/01/31 00:43:10;;;;;;;15.07;9.03;;;;;;;3.83;52.72;96306.28;5111597;28;20204;-63
2024/01/31 00:45:36;;;;;;;14.70;8.60;;;;;;;3.67;52.74;96278.19;5111875;28;20192;-62
2024/01/31 00:48:03;;;;;;;12.77;8.60;;;;;;;3.76;52.62;96296.41;5112021;28;20189;-62
2024/01/31 00:50:30;;;;;;;11.77;7.90;;;;;;;3.81;52.80;96300.47;5111509;28;20193;-62
2024/01/31 00:52:57;;;;;;;13.70;8.17;;;;;;;3.80;52.82;96298.81;5111274;28;20220;-63
2024/01/31 00:55:25;;;;;;;14.30;8.90;;;;;;;3.79;52.75;96295.44;5111714;28;20200;-64
2024/01/31 00:57:52;;;;;;;14.17;9.03;;;;;;;3.76;52.79;96296.41;5111666;28;20221;-62
2024/01/31 01:00:21;;;;;;;16.13;9.23;;;;;;;3.76;52.88;96298.13;5111523;28;20192;-62
2024/01/31 01:02:48;;;;;;;10.60;7.80;;;;;;;3.74;52.99;96300.69;5098775;28;20204;-62
2024/01/31 01:05:14;;;;;;;14.93;9.43;;;;;;;3.56;53.18;96273.53;5096022;28;20181;-62
2024/01/31 01:07:41;;;;;;;14.83;9.43;;;;;;;3.65;53.12;96288.38;5111461;28;20204;-62
2024/01/31 01:10:11;;;;;;;12.97;8.80;;;;;;;3.56;53.09;96276.06;5110342;28;20196;-62
2024/01/31 01:12:39;;;;;;;14.83;9.00;;;;;;;3.70;53.01;96300.84;5111076;28;20185;-62
2024/01/31 01:15:07;;;;;;;16.20;8.90;;;;;;;3.68;53.11;96295.03;5111242;28;20185;-61
2024/01/31 01:17:33;;;;;;;13.53;9.27;;;;;;;3.63;53.14;96295.22;5111201;28;20185;-63
2024/01/31 01:20:00;;;;;;;11.87;8.50;;;;;;;3.69;53.17;96306.81;5111360;28;20249;-62
2024/01/31 01:22:27;;;;;;;14.77;9.73;;;;;;;3.67;53.31;96306.88;5110559;28;20673;-62
2024/01/31 01:24:54;;;;;;;15.53;10.07;;;;;;;3.66;53.20;96300.13;5111159;28;20193;-62
2024/01/31 01:27:20;;;;;;;17.83;10.10;;;;;;;3.65;53.26;96303.56;5091446;28;20205;-62
2024/01/31 01:29:49;;;;;;;16.07;9.93;;;;;;;3.52;53.27;96280.41;5111044;28;20603;-62
2024/01/31 01:32:15;;;;;;;12.10;8.73;;;;;;;3.65;53.30;96295.97;5110430;28;20193;-62
2024/01/31 01:34:42;;;;;;;16.67;9.83;;;;;;;3.43;53.31;96265.56;5092514;28;20317;-63
2024/01/31 01:37:09;;;;;;;15.13;9.87;;;;;;;3.63;53.33;96291.88;5110383;28;20200;-62
2024/01/31 01:39:37;;;;;;;12.63;8.80;;;;;;;3.55;53.37;96276.97;5110836;28;20220;-63
2024/01/31 01:42:04;;;;;;;15.00;9.67;;;;;;;3.49;53.32;96272.09;5110510;28;20185;-61
2024/01/31 01:44:33;;;;;;;16.73;10.37;;;;;;;3.60;53.07;96292.78;5110893;28;20699;-61
2024/01/31 01:47:01;;;;;;;16.67;9.80;;;;;;;3.59;53.41;96287.78;5110987;28;20212;-62
2024/01/31 01:49:33;;;;;;;18.27;9.47;;;;;;;3.58;53.32;96283.59;5110450;28;20628;-62
2024/01/31 01:52:00;;;;;;;16.07;10.30;;;;;;;3.56;53.32;96288.72;5111640;28;20186;-63
2024/01/31 01:54:27;;;;;;;15.40;9.77;;;;;;;3.55;53.51;96292.13;5112131;28;20222;-62
2024/01/31 01:56:54;;;;;;;15.00;9.47;;;;;;;3.25;53.59;96244.31;5110237;28;20225;-63
2024/01/31 01:59:21;;;;;;;17.33;9.73;;;;;;;3.51;53.28;96281.28;5110085;28;20839;-62
2024/01/31 02:01:49;;;;;;;14.03;9.50;;;;;;;3.51;53.44;96283.00;5110516;28;20200;-62
2024/01/31 02:04:18;;;;;;;14.23;8.17;;;;;;;3.49;53.44;96284.75;5110134;28;20292;-62
2024/01/31 02:06:45;;;;;;;16.30;9.83;;;;;;;3.47;53.44;96278.94;5110255;28;20250;-62
2024/01/31 02:09:12;;;;;;;18.57;9.87;;;;;;;3.38;53.40;96267.44;5110283;28;20604;-63
2024/01/31 02:11:39;;;;;;;17.87;11.40;;;;;;;3.45;53.51;96275.63;5110448;28;20349;-63
2024/01/31 02:14:05;;;;;;;23.10;11.20;;;;;;;3.43;53.54;96274.88;5109965;28;20700;-62
2024/01/31 02:16:32;;;;;;;18.37;10.53;;;;;;;3.17;53.53;96233.66;5110907;28;20181;-63
2024/01/31 02:18:59;;;;;;;15.83;10.93;;;;;;;3.36;53.44;96266.66;5109753;28;20599;-63
2024/01/31 02:21:29;;;;;;;18.93;11.80;;;;;;;3.39;53.57;96270.81;5108937;28;20628;-63
2024/01/31 02:23:57;;;;;;;21.77;12.63;;;;;;;3.31;53.60;96260.94;5109842;28;20615;-62
2024/01/31 02:26:24;;;;;;;19.73;11.87;;;;;;;3.35;53.46;96267.56;5112230;28;20200;-62
2024/01/31 02:28:50;;;;;;;21.40;11.30;;;;;;;3.36;53.75;96263.31;5112929;28;20185;-63
2024/01/31 02:31:17;;;;;;;20.00;12.43;;;;;;;3.21;53.49;96231.84;5112795;28;20207;-62
2024/01/31 02:33:44;;;;;;;19.93;12.23;;;;;;;3.31;53.71;96260.13;5109978;28;20782;-62
2024/01/31 02:36:11;;;;;;;20.97;11.83;;;;;;;3.33;53.67;96258.38;5109539;28;20185;-61
2024/01/31 02:38:37;;;;;;;21.07;11.37;;;;;;;3.32;53.78;96260.06;5109672;28;20197;-62
2024/01/31 02:41:05;;;;;;;24.50;12.33;;;;;;;3.27;53.64;96255.19;5109746;28;20192;-62
2024/01/31 02:43:33;;;;;;;19.40;12.30;;;;;;;3.29;53.63;96247.56;5109777;28;21971;-62
2024/01/31 02:45:59;;;;;;;21.87;13.00;;;;;;;3.30;53.67;96258.50;5109843;28;20201;-61
2024/01/31 02:48:26;;;;;;;20.80;12.87;;;;;;;3.27;53.83;96260.22;5109800;28;20212;-62
2024/01/31 02:50:53;;;;;;;20.33;12.40;;;;;;;3.27;53.75;96259.41;5109275;28;20197;-61
2024/01/31 02:53:20;;;;;;;20.60;12.83;;;;;;;3.09;53.72;96224.69;5109956;28;20204;-62
2024/01/31 02:55:46;;;;;;;23.00;12.77;;;;;;;3.24;53.84;96249.44;5109603;28;20188;-63
2024/01/31 02:58:15;;;;;;;20.30;12.50;;;;;;;3.24;53.85;96247.72;5109558;28;20728;-63
2024/01/31 03:00:41;;;;;;;26.50;13.63;;;;;;;3.22;53.74;96249.47;5109450;28;20567;-61
2024/01/31 03:03:08;;;;;;;18.97;12.17;;;;;;;3.21;53.94;96252.88;5110006;28;20284;-63
2024/01/31 03:05:35;;;;;;;21.13;12.90;;;;;;;3.21;53.98;96257.13;5109345;28;20184;-63
2024/01/31 03:08:02;;;;;;;20.07;13.07;;;;;;;3.16;53.90;96249.69;5109630;28;20185;-62
2024/01/31 03:10:28;;;;;;;24.00;12.93;;;;;;;3.20;53.91;96256.28;5109401;28;20197;-63
2024/01/31 03:12:55;;;;;;;23.23;12.83;;;;;;;3.19;53.84;96253.81;5109138;28;20200;-61
2024/01/31 03:15:23;;;;;;;27.77;13.93;;;;;;;3.18;53.86;96252.16;5109436;28;20221;-63
2024/01/31 03:17:50;;;;;;;21.57;13.97;;;;;;;3.12;53.92;96243.09;5109242;28;20196;-62
2024/01/31 03:20:17;;;;;;;23.10;13.07;;;;;;;3.14;53.80;96248.91;5110168;28;20701;-62
2024/01/31 03:22:44;;;;;;;24.77;13.60;;;;;;;3.14;54.05;96248.09;5108954;28;20189;-62
2024/01/31 03:25:10;;;;;;;21.43;13.90;;;;;;;3.13;53.98;96243.91;5109617;28;20656;-62
2024/01/31 03:27:36;;;;;;;23.53;14.10;;;;;;;3.12;54.13;96238.03;5109097;28;20178;-62
2024/01/31 03:30:04;;;;;;;21.27;12.03;;;;;;;2.94;54.05;96214.25;5109328;28;20177;-62
2024/01/31 03:32:32;;;;;;;22.90;13.30;;;;;;;3.11;54.09;96245.66;5109054;28;20966;-62
2024/01/31 03:34:59;;;;;;;25.30;13.50;;;;;;;3.10;54.11;96244.03;5113238;28;20221;-63
2024/01/31 03:37:27;;;;;;;22.67;12.37;;;;;;;2.97;54.04;96216.66;5113066;28;20538;-62
2024/01/31 03:39:54;;;;;;;20.57;12.43;;;;;;;3.07;53.98;96234.88;5112993;28;20193;-62
2024/01/31 03:42:21;;;;;;;19.47;12.33;;;;;;;2.99;53.89;96219.97;5113113;28;20212;-63
2024/01/31 03:44:47;;;;;;;21.03;12.47;;;;;;;3.05;54.22;96236.59;5113216;28;20233;-62
2024/01/31 03:47:17;;;;;;;21.73;12.60;;;;;;;3.04;54.13;96245.06;5113644;28;20181;-62
2024/01/31 03:49:47;;;;;;;21.57;12.40;;;;;;;3.03;54.15;96248.47;5113636;28;20272;-63
2024/01/31 03:52:13;;;;;;;20.53;12.77;;;;;;;2.99;54.15;96236.81;5113623;28;20189;-63
2024/01/31 03:54:40;;;;;;;21.90;12.37;;;;;;;3.03;54.16;96251.00;5112325;28;20204;-62
2024/01/31 03:57:07;;;;;;;21.40;12.23;;;;;;;3.01;54.11;96257.81;5112958;28;20228;-62
2024/01/31 03:59:34;;;;;;;22.00;11.83;;;;;;;3.00;54.43;96246.06;5112727;28;20189;-62
2024/01/31 04:02:00;;;;;;;19.77;11.87;;;;;;;2.98;54.12;96251.16;5113125;28;20257;-62
2024/01/31 04:04:27;;;;;;;21.43;11.17;;;;;;;2.93;54.26;96242.06;5112167;28;20185;-63
2024/01/31 04:06:55;;;;;;;22.23;12.10;;;;;;;2.98;54.13;96256.22;5112564;28;20664;-62
2024/01/31 04:09:22;;;;;;;18.37;10.77;;;;;;;2.97;54.04;96262.13;5112540;28;20291;-62
2024/01/31 04:11:49;;;;;;;18.00;11.07;;;;;;;2.94;54.36;96252.16;5112748;28;20192;-61
2024/01/31 04:14:15;;;;;;;17.83;11.27;;;;;;;2.95;54.23;96256.31;5112324;28;20212;-66
2024/01/31 04:16:43;;;;;;;17.10;10.70;;;;;;;2.92;54.35;96253.88;5112475;28;20192;-62
2024/01/31 04:19:09;;;;;;;18.37;10.97;;;;;;;2.95;54.25;96260.56;5112175;28;20287;-66
2024/01/31 04:21:36;;;;;;;17.30;10.57;;;;;;;2.93;54.27;96255.53;5112430;28;20185;-63
2024/01/31 04:24:05;;;;;;;16.57;10.97;;;;;;;2.90;54.32;96259.91;5112090;28;20227;-62
2024/01/31 04:26:31;;;;;;;15.07;10.20;;;;;;;2.89;54.31;96258.22;5112446;28;20181;-63
2024/01/31 04:28:58;;;;;;;17.93;11.20;;;;;;;2.90;54.20;96265.78;5112272;28;20189;-61
2024/01/31 04:31:25;;;;;;;17.47;10.83;;;;;;;2.90;54.14;96265.78;5112190;28;20189;-63
2024/01/31 04:33:52;;;;;;;19.67;10.80;;;;;;;2.90;54.24;96267.47;5111905;28;20569;-63
2024/01/31 04:36:18;;;;;;;18.53;11.37;;;;;;;2.89;54.36;96264.09;5111729;28;20250;-61
2024/01/31 04:38:45;;;;;;;19.30;11.30;;;;;;;2.89;54.36;96265.81;5112055;28;20188;-63
2024/01/31 04:41:13;;;;;;;22.80;10.30;;;;;;;2.83;54.29;96254.22;5111784;28;20281;-63
2024/01/31 04:43:42;;;;;;;15.70;9.63;;;;;;;2.89;54.36;96255.69;5112017;28;20181;-62
2024/01/31 04:46:08;;;;;;;18.90;9.97;;;;;;;2.69;54.37;96234.47;5110311;28;20185;-63
2024/01/31 04:48:35;;;;;;;17.93;10.43;;;;;;;2.87;54.38;96263.34;5112152;28;20261;-63
2024/01/31 04:51:03;;;;;;;17.63;10.67;;;;;;;2.69;54.42;96231.13;5111520;28;20576;-63
2024/01/31 04:53:30;;;;;;;18.03;10.33;;;;;;;2.87;54.22;96267.56;5112081;28;20196;-63
2024/01/31 04:55:57;;;;;;;19.97;10.23;;;;;;;2.87;54.25;96260.00;5111214;28;20212;-63
2024/01/31 04:58:25;;;;;;;21.07;12.67;;;;;;;2.86;54.24;96256.63;5111379;28;20224;-62
2024/01/31 05:00:52;;;;;;;16.77;10.77;;;;;;;2.85;54.23;96252.47;5111604;28;20317;-62
2024/01/31 05:03:19;;;;;;;17.97;11.17;;;;;;;2.79;54.40;96242.56;5111546;28;20200;-63
2024/01/31 05:05:46;;;;;;;23.73;13.60;;;;;;;2.84;54.44;96240.69;5111328;28;20185;-63
2024/01/31 05:08:12;;;;;;;22.37;12.90;;;;;;;2.71;54.24;96220.06;5111425;28;20188;-63
2024/01/31 05:10:42;;;;;;;18.67;13.30;;;;;;;2.79;54.46;96241.75;5112562;28;20189;-63
2024/01/31 05:13:08;;;;;;;23.97;12.50;;;;;;;2.72;54.44;96231.84;5112008;28;20264;-63
2024/01/31 05:15:37;;;;;;;21.00;13.30;;;;;;;2.82;54.37;96254.28;5111320;28;20208;-61
2024/01/31 05:18:03;;;;;;;20.30;11.43;;;;;;;2.63;54.43;96226.25;5110840;28;20208;-62
2024/01/31 05:20:30;;;;;;;21.27;13.07;;;;;;;2.76;54.46;96251.09;5111139;28;20680;-66
2024/01/31 05:22:57;;;;;;;21.77;12.13;;;;;;;2.80;54.44;96258.53;5111536;28;20196;-65
2024/01/31 05:25:24;;;;;;;20.60;12.43;;;;;;;2.78;54.32;96255.25;5110289;27;20177;-63
2024/01/31 05:27:51;;;;;;;17.00;12.07;;;;;;;2.76;54.53;96265.38;5111608;28;20207;-64
2024/01/31 05:30:18;;;;;;;22.20;12.67;;;;;;;2.75;54.29;96267.09;5123436;27;20706;-63
2024/01/31 05:32:46;;;;;;;23.07;13.53;;;;;;;2.75;54.53;96269.63;5090983;28;20221;-63
2024/01/31 05:35:13;;;;;;;20.40;12.50;;;;;;;2.53;54.46;96235.88;5090580;28;20248;-62
2024/01/31 05:37:40;;;;;;;20.30;12.53;;;;;;;2.54;54.58;96241.72;5090676;28;20194;-61
2024/01/31 05:40:08;;;;;;;23.27;13.43;;;;;;;2.69;54.62;96266.50;5090336;28;20220;-62
2024/01/31 05:42:35;;;;;;;23.57;14.20;;;;;;;2.72;54.60;96281.53;5093846;28;20209;-62
2024/01/31 05:45:02;;;;;;;19.00;13.47;;;;;;;2.70;54.42;96276.53;5110226;28;20188;-62
2024/01/31 05:47:28;;;;;;;23.67;14.47;;;;;;;2.63;54.59;96270.03;5110625;28;20284;-62
2024/01/31 05:49:56;;;;;;;26.97;15.07;;;;;;;2.70;54.59;96284.09;5110246;28;20212;-63
2024/01/31 05:52:24;;;;;;;28.70;14.97;;;;;;;2.71;54.43;96292.50;5110372;28;20196;-63
2024/01/31 05:54:50;;;;;;;29.47;15.93;;;;;;;2.71;54.52;96295.84;5109927;28;20209;-62
2024/01/31 05:57:17;;;;;;;26.37;15.83;;;;;;;2.71;54.42;96295.84;5110647;28;20220;-62
2024/01/31 05:59:44;;;;;;;19.67;9.60;;;;;;;3.18;92.71;96285.03;5110330;28;20254;-63
2024/01/31 06:02:11;;;;;;;18.47;11.93;;;;;;;4.35;100.00;96287.41;5110798;28;20193;-64
2024/01/31 06:04:37;;;;;;;19.53;12.50;;;;;;;5.44;100.00;96291.31;5110189;28;20184;-63
2024/01/31 06:07:06;;;;;;;26.10;12.97;;;;;;;6.44;97.17;96287.63;5110534;28;20271;-63
2024/01/31 06:09:32;;;;;;;24.43;13.53;;;;;;;7.28;88.28;96280.91;5110360;28;20196;-64
2024/01/31 06:11:59;;;;;;;18.83;12.40;;;;;;;8.01;85.36;96288.94;5110436;28;20200;-63
2024/01/31 06:14:26;;;;;;;20.97;13.67;;;;;;;8.24;82.56;96263.94;5110746;28;20193;-61
2024/01/31 06:16:52;;;;;;;17.63;12.43;;;;;;;8.45;77.50;96288.28;5111184;28;20242;-63
2024/01/31 06:19:19;;;;;;;20.63;14.07;;;;;;;8.19;68.76;96289.69;5110504;28;20653;-63
2024/01/31 06:21:46;;;;;;;20.97;14.33;;;;;;;7.94;64.52;96286.81;5109995;28;20703;-62
2024/01/31 06:24:14;;;;;;;31.20;14.03;;;;;;;7.64;62.79;96286.72;5110103;28;20219;-63
2024/01/31 06:26:41;;;;;;;22.40;14.60;;;;;;;7.36;61.83;96287.31;5110213;28;20188;-63
2024/01/31 06:29:16;;;;;;;23.07;14.03;;;;;;;7.11;61.09;96290.28;5110396;28;20216;-66
2024/01/31 06:31:46;;;;;;;21.60;15.13;;;;;;;6.87;60.83;96282.19;5110173;28;20191;-63
2024/01/31 06:34:13;;;;;;;24.93;14.93;;;;;;;6.74;60.46;96284.50;5110381;28;20221;-62
2024/01/31 06:36:40;;;;;;;32.87;16.20;;;;;;;6.76;60.33;96293.69;5109971;28;20640;-63
2024/01/31 06:39:07;;;;;;;34.73;17.23;;;;;;;6.83;60.21;96285.78;5110255;28;20196;-63
2024/01/31 06:41:36;;;;;;;24.03;15.80;;;;;;;7.08;60.02;96298.91;5110246;28;20184;-63
2024/01/31 06:44:03;;;;;;;26.90;16.60;;;;;;;7.27;59.47;96286.06;5110306;28;20741;-63
2024/01/31 06:46:30;;;;;;;22.00;15.63;;;;;;;7.55;59.42;96298.19;5110412;28;20272;-63
2024/01/31 06:48:58;;;;;;;24.33;16.17;;;;;;;7.88;58.92;96293.06;5109936;28;20189;-63
2024/01/31 06:51:25;;;;;;;22.27;16.27;;;;;;;8.22;58.61;96301.44;5110166;28;20231;-63
2024/01/31 06:53:54;;;;;;;26.27;16.23;;;;;;;8.54;58.31;96274.19;5110000;28;20196;-64
2024/01/31 06:56:21;;;;;;;30.53;16.30;;;;;;;9.14;58.49;96296.28;5109779;28;20231;-63
2024/01/31 06:58:51;;;;;;;29.53;17.53;;;;;;;9.58;58.09;96277.50;5110095;28;20238;-63
2024/01/31 07:01:18;;;;;;;28.63;15.87;;;;;;;10.20;58.18;96288.19;5110216;28;20643;-63
2024/01/31 07:03:45;;;;;;;25.17;17.00;;;;;;;10.73;57.77;96282.22;5109878;28;20626;-64
2024/01/31 07:06:12;;;;;;;22.90;16.53;;;;;;;11.37;57.10;96296.84;5109640;28;20196;-63
2024/01/31 07:08:39;;;;;;;23.23;16.27;;;;;;;11.93;56.40;96287.88;5111901;28;20191;-64
2024/01/31 07:11:08;;;;;;;27.07;16.90;;;;;;;12.51;55.50;96288.06;5113841;28;20197;-62
2024/01/31 07:13:35;;;;;;;21.97;16.27;;;;;;;12.91;54.49;96262.03;5113515;28;20250;-63
2024/01/31 07:16:04;;;;;;;24.87;16.67;;;;;;;13.55;53.32;96275.25;5113420;28;20697;-62
2024/01/31 07:18:32;;;;;;;24.57;15.97;;;;;;;14.11;52.45;96276.94;5113556;28;20712;-63
2024/01/31 07:20:59;;;;;;;25.20;16.80;;;;;;;14.68;51.45;96288.72;5113547;28;20216;-62
2024/01/31 07:23:26;;;;;;;22.53;16.37;;;;;;;15.13;50.42;96291.91;5113864;28;20635;-62
2024/01/31 07:25:53;;;;;;;25.30;17.20;;;;;;;15.57;49.55;96293.34;5114035;28;20923;-64
2024/01/31 07:28:20;;;;;;;26.57;16.40;;;;;;;15.82;48.54;96264.72;5114075;28;20234;-63
2024/01/31 07:30:47;;;;;;;24.80;16.90;;;;;;;16.31;47.74;96284.50;5114072;28;20276;-63
2024/01/31 07:33:16;;;;;;;24.97;17.50;;;;;;;16.72;46.91;96285.22;5113948;28;20193;-65
2024/01/31 07:35:43;;;;;;;23.70;16.93;;;;;;;17.02;46.23;96290.28;5113631;28;20699;-63
2024/01/31 07:38:10;;;;;;;25.73;18.37;;;;;;;17.39;45.49;96294.69;5113496;28;20241;-64
2024/01/31 07:40:37;;;;;;;24.23;16.63;;;;;;;17.66;44.83;96285.31;5112983;28;20192;-62
2024/01/31 07:43:04;;;;;;;22.70;15.93;;;;;;;17.95;44.33;96288.63;5113274;28;20199;-63
2024/01/31 07:45:31;;;;;;;26.10;18.37;;;;;;;18.25;43.58;96290.09;5113364;28;20653;-63
2024/01/31 07:47:58;;;;;;;29.90;17.63;;;;;;;18.49;43.12;96288.75;5115486;28;20193;-63
2024/01/31 07:50:26;;;;;;;26.40;16.43;;;;;;;18.72;42.59;96289.94;5114113;28;20771;-63
2024/01/31 07:52:53;;;;;;;22.30;16.87;;;;;;;18.95;42.09;96284.31;5113603;28;20181;-63
2024/01/31 07:55:19;;;;;;;24.00;17.43;;;;;;;19.16;41.64;96278.78;5112740;28;20227;-63
2024/01/31 07:57:46;;;;;;;23.43;16.87;;;;;;;19.33;41.42;96283.13;5113086;28;20282;-64
2024/01/31 08:00:14;;;;;;;23.40;17.53;;;;;;;19.21;40.95;96232.44;5113244;28;20189;-64
2024/01/31 08:02:40;;;;;;;24.60;17.10;;;;;;;19.64;40.45;96283.47;5113353;28;20200;-64
2024/01/31 08:05:07;;;;;;;26.90;16.43;;;;;;;19.75;40.43;96280.63;5113319;28;20619;-63
2024/01/31 08:07:36;;;;;;;20.63;15.70;;;;;;;19.85;39.97;96290.06;5113022;28;20192;-63
2024/01/31 08:10:03;;;;;;;23.23;16.57;;;;;;;19.78;39.39;96269.13;5113016;28;20546;-64
2024/01/31 08:12:29;;;;;;;22.67;17.30;;;;;;;19.70;39.39;96276.88;5112854;28;20253;-64
2024/01/31 08:14:56;;;;;;;21.77;16.43;;;;;;;19.43;39.15;96278.66;5113178;28;20196;-65
2024/01/31 08:17:23;;;;;;;28.97;17.33;;;;;;;19.38;39.00;96267.09;5112573;28;20196;-65
2024/01/31 08:19:50;;;;;;;24.30;17.13;;;;;;;19.26;38.74;96284.72;5111466;28;20688;-64
2024/01/31 08:22:17;;;;;;;21.73;16.83;;;;;;;18.82;38.50;96269.13;5112490;28;20275;-65
2024/01/31 08:24:45;;;;;;;20.57;15.97;;;;;;;18.40;38.33;96272.31;5112961;28;20177;-65
2024/01/31 08:27:12;;;;;;;23.27;16.10;;;;;;;17.92;38.47;96269.97;5112442;28;20199;-63
2024/01/31 08:29:39;;;;;;;23.73;16.43;;;;;;;17.34;38.46;96263.25;5112626;28;20291;-64
2024/01/31 08:32:06;;;;;;;26.27;17.13;;;;;;;16.97;38.37;96266.63;5112213;28;20189;-64
2024/01/31 08:34:33;;;;;;;22.43;16.43;;;;;;;16.64;38.54;96270.41;5112726;28;20295;-63
2024/01/31 08:37:00;;;;;;;24.00;16.17;;;;;;;16.23;38.72;96268.88;5112081;28;20234;-65
2024/01/31 08:39:29;;;;;;;22.70;16.57;;;;;;;15.75;38.85;96247.16;5112383;28;20633;-64
2024/01/31 08:41:57;;;;;;;30.00;17.53;;;;;;;15.23;39.28;96223.19;5112598;28;20181;-63
2024/01/31 08:44:24;;;;;;;24.70;16.90;;;;;;;15.15;39.30;96261.66;5112502;28;20196;-64
2024/01/31 08:46:52;;;;;;;23.70;16.00;;;;;;;15.00;39.17;96255.22;5112413;28;20707;-64
2024/01/31 08:49:21;;;;;;;21.90;15.90;;;;;;;14.78;39.26;96251.81;5112093;28;20185;-62
2024/01/31 08:51:47;;;;;;;25.43;16.33;;;;;;;14.50;39.57;96247.25;5112155;28;20780;-64
2024/01/31 08:54:14;;;;;;;24.07;16.00;;;;;;;14.22;39.67;96249.44;5111968;28;20200;-62
2024/01/31 08:56:41;;;;;;;23.60;16.67;;;;;;;13.95;39.93;96247.28;5111926;28;20244;-65
2024/01/31 08:59:09;;;;;;;25.23;15.97;;;;;;;13.70;40.06;96244.97;5111943;28;20185;-64
2024/01/31 09:01:36;;;;;;;22.77;15.33;;;;;;;13.42;40.12;96229.09;5112080;28;20196;-63
2024/01/31 09:04:03;;;;;;;27.40;14.77;;;;;;;13.21;40.27;96228.97;5111840;28;20200;-63
2024/01/31 09:06:30;;;;;;;22.37;14.83;;;;;;;13.02;40.68;96226.94;5112004;28;20221;-64
2024/01/31 09:08:57;;;;;;;22.77;14.93;;;;;;;12.85;40.78;96235.09;5112001;28;20530;-63
2024/01/31 09:11:24;;;;;;;21.50;14.17;;;;;;;12.68;40.74;96222.69;5112279;28;20200;-64
2024/01/31 09:13:51;;;;;;;22.63;14.87;;;;;;;12.50;41.01;96215.38;5111567;28;20288;-65
2024/01/31 09:16:19;;;;;;;24.33;15.53;;;;;;;12.37;40.81;96214.66;5111815;28;20565;-63
2024/01/31 09:18:45;;;;;;;20.40;13.50;;;;;;;12.24;41.13;96219.84;5112155;28;20189;-62
2024/01/31 09:21:21;;;;;;;24.90;15.20;;;;;;;12.11;41.42;96206.25;5111214;28;20200;-64
2024/01/31 09:23:48;;;;;;;21.60;14.67;;;;;;;11.99;41.30;96205.38;5111609;28;20264;-63
2024/01/31 09:26:15;;;;;;;20.77;13.67;;;;;;;11.89;41.25;96201.84;5111285;28;20246;-62
2024/01/31 09:28:42;;;;;;;22.40;14.53;;;;;;;11.77;41.57;96200.94;5111522;28;20276;-61
2024/01/31 09:31:09;;;;;;;19.73;14.60;;;;;;;11.67;41.59;96191.44;5110593;28;20607;-62
2024/01/31 09:33:37;;;;;;;20.17;13.97;;;;;;;11.59;41.53;96191.16;5111118;28;20622;-64
2024/01/31 09:36:04;;;;;;;23.57;14.80;;;;;;;11.49;41.68;96186.66;5110443;28;20228;-63
2024/01/31 09:38:31;;;;;;;24.03;14.87;;;;;;;11.42;41.65;96187.19;5111281;28;20189;-63
2024/01/31 09:40:58;;;;;;;21.43;14.60;;;;;;;11.34;41.95;96180.03;5110834;28;20278;-63
2024/01/31 09:43:25;;;;;;;22.53;14.03;;;;;;;11.26;41.66;96172.88;5111173;28;20181;-61
2024/01/31 09:45:53;;;;;;;20.87;14.83;;;;;;;10.57;41.76;96068.44;5111027;28;20189;-62
2024/01/31 09:48:20;;;;;;;20.40;13.87;;;;;;;11.17;42.08;96167.56;5111060;28;20584;-62
2024/01/31 09:50:49;;;;;;;24.27;14.70;;;;;;;11.09;42.00;96164.69;5110443;28;20200;-63
2024/01/31 09:53:16;;;;;;;19.37;14.03;;;;;;;11.08;42.15;96153.66;5110825;28;20241;-63
2024/01/31 09:55:44;;;;;;;22.23;15.50;;;;;;;11.04;41.93;96153.03;5110457;28;20221;-64
2024/01/31 09:58:11;;;;;;;22.13;14.27;;;;;;;10.99;42.05;96152.53;5110617;28;20224;-62
2024/01/31 10:00:38;;;;;;;27.43;15.93;;;;;;;10.71;42.28;96106.72;5110437;28;20276;-62
2024/01/31 10:03:06;;;;;;;20.40;13.57;;;;;;;10.94;42.04;96136.66;5110436;28;20550;-62
2024/01/31 10:05:33;;;;;;;21.67;14.60;;;;;;;10.88;41.97;96126.00;5110634;28;20193;-63
2024/01/31 10:08:05;;;;;;;21.17;15.13;;;;;;;10.92;42.16;96132.56;5110218;28;20669;-62
2024/01/31 10:10:32;;;;;;;20.27;14.70;;;;;;;10.89;41.91;96127.69;5110465;28;20646;-62
2024/01/31 10:12:58;;;;;;;22.73;14.90;;;;;;;10.92;42.15;96130.00;5110314;28;20658;-63
2024/01/31 10:15:25;;;;;;;22.93;14.97;;;;;;;10.87;42.03;96117.53;5110349;28;20577;-63
2024/01/31 10:17:54;;;;;;;28.33;14.00;;;;;;;10.74;42.15;96093.69;5110783;28;20196;-63
2024/01/31 10:20:20;;;;;;;21.60;14.17;;;;;;;10.92;42.11;96122.31;5110648;28;20181;-62
2024/01/31 10:22:47;;;;;;;23.80;15.80;;;;;;;10.93;42.07;96116.31;5110256;28;20184;-63
2024/01/31 10:25:18;;;;;;;20.40;15.40;;;;;;;10.96;42.07;96104.09;5111201;28;20234;-65
2024/01/31 10:27:46;;;;;;;18.30;14.33;;;;;;;10.72;42.12;96057.97;5111440;28;20634;-62
2024/01/31 10:30:14;;;;;;;20.53;14.77;;;;;;;11.00;41.95;96097.03;5110289;28;20192;-63
2024/01/31 10:32:41;;;;;;;21.30;14.17;;;;;;;11.01;41.78;96099.50;5110012;28;20193;-62
2024/01/31 10:35:09;;;;;;;21.70;14.27;;;;;;;11.04;41.91;96088.22;5110552;28;20301;-62
2024/01/31 10:37:36;;;;;;;21.47;16.13;;;;;;;10.95;41.81;96071.75;5110643;28;20224;-62
2024/01/31 10:40:04;;;;;;;26.10;14.47;;;;;;;11.09;41.65;96083.59;5110645;28;20199;-63
2024/01/31 10:42:32;;;;;;;22.97;15.10;;;;;;;11.12;41.93;96077.44;5109021;28;20685;-63
2024/01/31 10:45:00;;;;;;;18.73;14.33;;;;;;;11.08;41.54;96069.16;5110195;28;20192;-64
2024/01/31 10:47:27;;;;;;;22.63;16.30;;;;;;;11.16;41.59;96071.19;5109919;28;20648;-61
2024/01/31 10:49:54;;;;;;;21.80;14.93;;;;;;;11.19;41.54;96063.31;5109916;28;20188;-62
2024/01/31 10:52:26;;;;;;;22.30;14.70;;;;;;;11.22;41.71;96058.75;5109909;28;20189;-62
2024/01/31 10:54:58;;;;;;;28.70;15.10;;;;;;;11.27;41.43;96055.91;5109927;28;20226;-63
2024/01/31 10:57:25;;;;;;;25.30;15.67;;;;;;;11.32;41.45;96053.00;5109761;28;20631;-62
2024/01/31 10:59:56;;;;;;;23.03;14.43;;;;;;;11.35;41.20;96050.22;5109553;28;20257;-64
2024/01/31 11:02:29;;;;;;;20.50;14.27;;;;;;;11.40;41.30;96045.56;5110116;28;20189;-63
2024/01/31 11:04:58;;;;;;;20.77;14.47;;;;;;;11.44;41.43;96041.88;5109623;28;20680;-62
2024/01/31 11:07:25;;;;;;;21.23;14.30;;;;;;;11.44;41.00;96036.75;5109905;28;20225;-63
2024/01/31 11:09:52;;;;;;;22.43;13.80;;;;;;;11.53;41.11;96033.56;5109633;28;20338;-63
2024/01/31 11:12:19;;;;;;;23.23;14.43;;;;;;;11.56;40.99;96026.44;5109918;28;20185;-63
2024/01/31 11:14:47;;;;;;;19.10;14.10;;;;;;;11.62;40.95;96020.06;5110039;28;20193;-62
2024/01/31 11:17:22;;;;;;;21.83;14.90;;;;;;;11.68;40.71;96022.19;5109755;28;20712;-63
2024/01/31 11:19:51;;;;;;;18.23;13.53;;;;;;;11.72;40.80;96010.78;5110014;28;20271;-62
2024/01/31 11:22:18;;;;;;;21.33;14.70;;;;;;;11.76;40.80;96004.50;5110171;28;20193;-64
2024/01/31 11:24:47;;;;;;;21.80;13.17;;;;;;;11.73;40.65;95988.53;5109669;28;20185;-63